createdAt,value
2022-11-03T00:08:24.261Z,9.07
2022-11-03T00:11:01.883Z,8.73
2022-11-03T00:16:50.313Z,8.77
2022-11-03T00:19:16.307Z,8.00
2022-11-03T00:22:28.791Z,8.38
2022-11-03T00:25:33.373Z,8.80
2022-11-03T00:31:59.104Z,10.48
2022-11-03T01:01:32.861Z,9.65
2022-11-03T01:11:41.765Z,8.18
2022-11-03T01:14:23.785Z,9.63
2022-11-03T01:22:40.556Z,8.15
2022-11-03T01:25:22.581Z,7.97
2022-11-03T01:49:49.104Z,9.05
2022-11-03T01:52:36.680Z,9.30
2022-11-03T01:55:09.761Z,8.63
2022-11-03T01:57:42.378Z,9.10
2022-11-03T02:00:14.725Z,8.82
2022-11-03T02:02:42.590Z,8.55
2022-11-03T02:07:52.309Z,7.95
2022-11-03T02:11:07.971Z,8.23
2022-11-03T02:15:57.305Z,7.40
2022-11-03T02:18:28.176Z,7.60
2022-11-03T02:21:15.488Z,6.75
2022-11-03T02:23:51.863Z,8.63
2022-11-03T02:26:30.978Z,7.28
2022-11-03T02:28:58.336Z,8.43
2022-11-03T02:31:49.663Z,7.07
2022-11-03T02:34:20.688Z,6.72
2022-11-03T02:36:51.023Z,8.02
2022-11-03T02:39:35.483Z,7.18
2022-11-03T02:42:04.164Z,8.57
2022-11-03T02:44:35.515Z,7.80
2022-11-03T02:47:04.049Z,8.27
2022-11-03T02:49:33.024Z,6.85
2022-11-03T02:52:01.469Z,7.75
2022-11-03T02:54:34.941Z,8.73
2022-11-03T02:57:12.379Z,9.80
2022-11-03T02:59:50.447Z,8.48
2022-11-03T03:02:20.506Z,7.43
2022-11-03T03:04:59.820Z,8.40
2022-11-03T03:07:42.807Z,7.28
2022-11-03T03:10:12.873Z,8.20
2022-11-03T03:12:57.950Z,7.97
2022-11-03T03:15:46.208Z,7.85
2022-11-03T03:18:31.587Z,7.53
2022-11-03T03:21:34.782Z,8.93
2022-11-03T03:26:31.154Z,8.45
2022-11-03T03:28:59.974Z,9.90
2022-11-03T03:31:34.293Z,10.00
2022-11-03T03:34:31.516Z,9.60
2022-11-03T03:37:04.257Z,9.10
2022-11-03T03:39:33.246Z,9.38
2022-11-03T03:42:02.792Z,8.23
2022-11-03T03:44:40.674Z,8.85
2022-11-03T03:47:12.720Z,9.25
2022-11-03T03:49:39.873Z,8.98
2022-11-03T03:52:16.358Z,9.30
2022-11-03T03:54:43.640Z,9.10
2022-11-03T03:57:29.921Z,8.88
2022-11-03T04:00:18.993Z,9.95
2022-11-03T04:02:49.124Z,10.15
2022-11-03T04:05:16.538Z,12.60
2022-11-03T04:07:50.136Z,10.98
2022-11-03T04:10:19.617Z,9.82
2022-11-03T04:13:08.318Z,9.55
2022-11-03T04:22:19.166Z,9.50
2022-11-03T04:24:47.917Z,9.63
2022-11-03T04:27:35.752Z,10.13
2022-11-03T04:30:03.348Z,11.20
2022-11-03T04:32:30.633Z,11.80
2022-11-03T04:34:59.138Z,10.70
2022-11-03T04:41:20.844Z,11.35
2022-11-03T04:47:29.243Z,11.70
2022-11-03T04:50:47.774Z,10.77
2022-11-03T04:53:33.390Z,11.05
2022-11-03T04:56:23.344Z,10.13
2022-11-03T05:02:07.235Z,9.95
2022-11-03T05:07:45.618Z,10.68
2022-11-03T05:22:42.561Z,10.52
2022-11-03T05:25:50.251Z,13.70
2022-11-03T05:26:20.162Z,11.70
2022-11-03T05:28:25.953Z,12.10
2022-11-03T05:30:53.736Z,15.18
2022-11-03T05:37:06.849Z,12.02
2022-11-03T05:39:45.522Z,12.77
2022-11-03T05:42:21.272Z,12.50
2022-11-03T05:44:48.512Z,12.88
2022-11-03T05:47:20.409Z,11.25
2022-11-03T05:49:49.801Z,11.40
2022-11-03T05:52:20.341Z,12.30
2022-11-03T05:54:47.962Z,11.32
2022-11-03T05:57:15.825Z,13.75
2022-11-03T05:59:50.817Z,10.95
2022-11-03T06:02:36.688Z,13.10
2022-11-03T06:05:16.224Z,11.90
2022-11-03T06:07:52.070Z,10.65
2022-11-03T06:10:19.837Z,12.07
2022-11-03T06:16:20.700Z,12.30
2022-11-03T06:18:50.530Z,13.73
2022-11-03T06:21:29.781Z,12.23
2022-11-03T06:26:53.031Z,11.65
2022-11-03T06:29:21.233Z,10.70
2022-11-03T06:31:53.088Z,11.13
2022-11-03T06:34:25.452Z,11.48
2022-11-03T06:36:52.539Z,11.95
2022-11-03T06:39:23.804Z,13.07
2022-11-03T06:41:50.999Z,11.05
2022-11-03T06:44:26.201Z,11.52
2022-11-03T06:46:57.755Z,13.07
2022-11-03T06:49:29.321Z,13.07
2022-11-03T06:51:57.380Z,11.52
2022-11-03T06:54:24.459Z,12.10
2022-11-03T06:56:51.594Z,12.32
2022-11-03T06:59:19.111Z,11.15
2022-11-03T07:01:47.270Z,13.68
2022-11-03T07:04:21.019Z,15.57
2022-11-03T07:06:55.628Z,15.57
2022-11-03T07:09:55.221Z,13.07
2022-11-03T07:12:22.586Z,11.55
2022-11-03T07:14:53.707Z,12.50
2022-11-03T07:17:22.681Z,11.82
2022-11-03T07:19:49.851Z,13.25
2022-11-03T07:22:22.354Z,12.23
2022-11-03T07:27:50.922Z,10.68
2022-11-03T07:30:22.081Z,11.30
2022-11-03T07:33:14.021Z,11.25
2022-11-03T07:36:16.252Z,10.57
2022-11-03T07:39:03.109Z,10.95
2022-11-03T07:41:34.349Z,14.05
2022-11-03T07:44:02.570Z,12.00
2022-11-03T07:46:29.831Z,12.60
2022-11-03T07:49:12.988Z,12.25
2022-11-03T07:52:17.994Z,11.57
2022-11-03T07:55:21.152Z,11.60
2022-11-03T08:00:29.636Z,10.18
2022-11-03T08:03:34.193Z,9.77
2022-11-03T08:06:21.889Z,9.55
2022-11-03T08:09:05.388Z,11.85
2022-11-03T08:11:35.555Z,10.85
2022-11-03T08:16:40.553Z,9.57
2022-11-03T08:27:00.947Z,7.55
2022-11-03T08:32:52.379Z,6.03
2022-11-03T08:35:19.610Z,5.55
2022-11-03T08:37:53.051Z,5.95
2022-11-03T08:43:11.566Z,6.43
2022-11-03T08:46:17.320Z,6.00
2022-11-03T08:51:50.561Z,5.40
2022-11-03T08:54:18.010Z,5.40
2022-11-03T08:56:46.876Z,5.22
2022-11-03T09:02:03.573Z,6.30
2022-11-03T09:04:35.951Z,7.18
2022-11-03T09:07:04.965Z,6.32
2022-11-03T09:12:21.694Z,8.30
2022-11-03T09:14:48.811Z,7.47
2022-11-03T09:17:15.886Z,7.30
2022-11-03T09:19:45.283Z,6.60
2022-11-03T09:22:12.505Z,6.65
2022-11-03T09:24:39.602Z,6.65
2022-11-03T09:27:06.971Z,6.72
2022-11-03T09:29:58.604Z,6.82
2022-11-03T09:32:23.599Z,6.43
2022-11-03T09:34:51.172Z,6.60
2022-11-03T09:37:18.998Z,6.50
2022-11-03T09:39:46.332Z,6.25
2022-11-03T09:42:44.142Z,6.75
2022-11-03T09:45:19.144Z,7.75
2022-11-03T09:47:47.446Z,7.05
2022-11-03T09:50:25.723Z,6.35
2022-11-03T09:53:29.331Z,6.65
2022-11-03T09:55:56.683Z,6.45
